Time;durP1;ratioP1;P1;durP2;ratioP2;P2;SDS_P1;SDS_P2;PMS_P1;PMS_P2;Temp;Humidity;BMP_temperature;BMP_pressure;BME280_temperature;BME280_humidity;BME280_pressure;Samples;Min_cycle;Max_cycle;Signal;HPM_P1;HPM_P2
2022/02/13 00:01:26;;;;;;;;;72.50;52.00;;;;;-2.19;76.29;101209.13;6274498;20;2508629;-46
2022/02/13 00:03:54;;;;;;;;;87.50;62.00;;;;;-2.03;76.28;101201.50;6274311;20;2500274;-44
2022/02/13 00:06:23;;;;;;;;;87.33;61.67;;;;;-2.08;77.14;101208.44;6278845;20;2900280;-45
2022/02/13 00:08:56;;;;;;;;;92.33;66.00;;;;;-1.90;75.36;101206.91;6311404;20;3646109;-45
2022/02/13 00:11:25;;;;;;;;;92.33;63.00;;;;;-2.05;76.34;101199.72;6311427;20;3657521;-46
2022/02/13 00:13:58;;;;;;;;;86.00;67.00;;;;;-2.17;76.49;101192.50;6306511;20;2500303;-44
2022/02/13 00:16:28;;;;;;;;;91.00;67.00;;;;;-2.26;76.32;101189.75;6283586;20;3605485;-43
2022/02/13 00:18:56;;;;;;;;;73.00;57.00;;;;;-2.13;76.19;101189.06;6312911;20;2489832;-43
2022/02/13 00:21:44;;;;;;;;;66.50;51.50;;;;;-2.00;75.56;101191.00;6282947;20;2499216;-43
2022/02/13 00:24:13;;;;;;;;;16.00;16.00;;;;;-2.51;75.75;101181.47;6285100;20;3555518;-43
2022/02/13 00:26:42;;;;;;;;;85.00;54.00;;;;;-2.22;75.04;101179.28;6283164;20;2889035;-45
2022/02/13 00:29:11;;;;;;;;;67.00;52.00;;;;;-2.74;75.63;101178.50;6315948;20;2860691;-43
2022/02/13 00:31:39;;;;;;;;;61.00;48.00;;;;;-2.56;75.57;101172.63;6286735;20;2879414;-42
2022/02/13 00:34:07;;;;;;;;;79.50;58.00;;;;;-2.70;76.60;101175.03;6281373;20;2500248;-42
2022/02/13 00:36:37;;;;;;;;;85.33;61.00;;;;;-2.70;75.75;101185.56;6283623;20;2904466;-42
2022/02/13 00:39:07;;;;;;;;;71.50;51.00;;;;;-2.74;75.71;101172.34;6315582;20;3622249;-42
2022/02/13 00:41:35;;;;;;;;;66.50;48.00;;;;;-2.98;75.51;101167.53;6310272;20;2508580;-42
2022/02/13 00:44:06;;;;;;;;;55.00;43.00;;;;;-2.77;74.98;101172.28;6283514;20;2884801;-43
2022/02/13 00:46:34;;;;;;;;;41.00;38.50;;;;;-2.60;74.46;101160.31;6314446;20;2857700;-43
2022/02/13 00:49:04;;;;;;;;;43.00;33.33;;;;;-2.59;74.04;101155.94;6284942;20;3609677;-43
2022/02/13 00:51:32;;;;;;;;;37.00;35.00;;;;;-3.00;76.00;101172.78;6284338;20;2860700;-43
2022/02/13 00:54:02;;;;;;;;;35.33;28.33;;;;;-2.61;75.67;101161.16;6285434;20;3591922;-44
2022/02/13 00:56:30;;;;;;;;;36.67;31.00;;;;;-2.93;76.04;101158.88;6283185;20;3584587;-42
2022/02/13 00:58:59;;;;;;;;;26.33;18.33;;;;;-2.91;76.68;101159.81;6314410;20;3562718;-43
2022/02/13 01:01:27;;;;;;;;;36.50;25.00;;;;;-2.84;76.21;101162.53;6309618;20;2502373;-45
2022/02/13 01:03:55;;;;;;;;;35.00;27.00;;;;;-2.38;74.79;101155.38;6285262;20;2869132;-46
2022/02/13 01:06:25;;;;;;;;;27.00;26.33;;;;;-2.75;75.50;101160.94;6285016;20;3568382;-43
2022/02/13 01:08:53;;;;;;;;;34.00;28.00;;;;;-2.81;76.55;101158.22;6317977;20;2852367;-44
2022/02/13 01:11:22;;;;;;;;;41.33;31.00;;;;;-3.11;76.98;101153.31;6284291;20;3608648;-45
2022/02/13 01:13:51;;;;;;;;;35.33;23.33;;;;;-2.94;76.23;101159.75;6282748;20;3592964;-43
2022/02/13 01:16:20;;;;;;;;;33.33;27.33;;;;;-2.95;76.77;101162.34;6282903;20;3593047;-44
2022/02/13 01:18:49;;;;;;;;;41.67;33.00;;;;;-3.21;77.31;101159.25;6284558;20;3601297;-44
2022/02/13 01:21:17;;;;;;;;;30.00;24.50;;;;;-3.15;77.46;101155.00;6282447;20;2836730;-43
2022/02/13 01:23:46;;;;;;;;;46.00;34.67;;;;;-3.05;78.37;101155.16;6283286;20;3615842;-44
2022/02/13 01:26:15;;;;;;;;;41.50;31.00;;;;;-3.09;77.03;101151.59;6281275;20;2865399;-45
2022/02/13 01:28:44;;;;;;;;;37.00;28.67;;;;;-3.18;78.15;101154.09;6282659;20;3593610;-45
2022/02/13 01:31:11;;;;;;;;;34.00;32.00;;;;;-3.12;76.84;101154.19;6279008;20;2858624;-45
2022/02/13 01:33:40;;;;;;;;;34.67;24.00;;;;;-3.20;78.02;101148.78;6281946;20;3593175;-43
2022/02/13 01:36:09;;;;;;;;;39.00;29.33;;;;;-3.24;77.35;101143.44;6314666;20;3618018;-43
2022/02/13 01:38:38;;;;;;;;;35.67;28.67;;;;;-2.99;77.67;101148.28;6280517;20;3602447;-42
2022/02/13 01:41:09;;;;;;;;;47.17;36.67;;;;;-3.31;77.40;101137.22;6306251;20;3604408;-42
2022/02/13 01:43:38;;;;;;;;;49.33;38.33;;;;;-3.56;77.96;101136.72;6281565;20;3605449;-44
2022/02/13 01:46:06;;;;;;;;;48.00;35.00;;;;;-3.41;77.91;101125.66;6283525;20;2867980;-42
2022/02/13 01:48:36;;;;;;;;;43.00;34.00;;;;;-3.09;77.09;101120.97;6283894;20;3585670;-43
2022/02/13 01:51:05;;;;;;;;;47.50;36.00;;;;;-3.26;77.56;101129.44;6281311;20;2874333;-43
2022/02/13 01:53:50;;;;;;;;;35.67;28.67;;;;;-3.29;76.32;101124.09;6280737;20;3583819;-43
2022/02/13 01:56:18;;;;;;;;;50.50;39.00;;;;;-3.36;76.87;101123.13;6281111;20;2864039;-43
2022/02/13 01:58:46;;;;;;;;;49.00;37.00;;;;;-3.63;77.15;101115.63;6281369;20;3610648;-42
2022/02/13 02:01:15;;;;;;;;;42.67;33.67;;;;;-3.83;76.88;101116.09;6282862;20;3606480;-44
2022/02/13 02:03:45;;;;;;;;;45.00;30.67;;;;;-3.87;77.73;101116.91;6283321;20;3624320;-43
2022/02/13 02:06:14;;;;;;;;;39.67;32.33;;;;;-3.91;77.78;101109.81;6281033;20;3599232;-43
2022/02/13 02:08:43;;;;;;;;;34.67;29.33;;;;;-3.83;77.94;101108.22;6279619;20;3589906;-42
2022/02/13 02:11:12;;;;;;;;;33.33;21.33;;;;;-3.49;77.22;101095.75;6280380;20;3577871;-42
2022/02/13 02:13:42;;;;;;;;;36.50;33.00;;;;;-3.02;74.95;101103.56;6311549;20;2856534;-43
2022/02/13 02:16:12;;;;;;;;;28.00;24.00;;;;;-3.07;74.45;101097.34;6283447;20;3573170;-45
2022/02/13 02:18:40;;;;;;;;;36.00;28.00;;;;;-3.22;74.23;101099.72;6312814;20;2854436;-43
2022/02/13 02:21:09;;;;;;;;;34.33;26.33;;;;;-3.72;76.26;101097.06;6280753;20;3563799;-42
2022/02/13 02:23:39;;;;;;;;;22.00;19.00;;;;;-3.08;74.85;101092.97;6312407;20;2819040;-44
2022/02/13 02:26:10;;;;;;;;;28.67;21.33;;;;;-3.11;73.77;101092.88;6305851;20;2840055;-44
2022/02/13 02:28:39;;;;;;;;;23.67;21.00;;;;;-3.59;75.36;101089.44;6311474;20;2818080;-42
2022/02/13 02:31:07;;;;;;;;;25.67;19.33;;;;;-3.27;75.08;101080.38;6313507;20;3575247;-42
2022/02/13 02:33:35;;;;;;;;;25.00;19.00;;;;;-3.17;74.53;101084.91;6311327;20;2842053;-42
2022/02/13 02:36:05;;;;;;;;;34.67;21.67;;;;;-3.63;75.29;101086.75;6280202;20;3586858;-46
2022/02/13 02:38:35;;;;;;;;;18.33;18.33;;;;;-3.46;75.21;101085.28;6345711;20;1839875;-44
2022/02/13 02:41:04;;;;;;;;;32.00;21.00;;;;;-3.76;76.55;101076.00;6282682;20;3609646;-44
2022/02/13 02:43:33;;;;;;;;;33.00;26.33;;;;;-3.46;75.66;101085.28;6278346;20;3573199;-43
2022/02/13 02:46:02;;;;;;;;;33.33;23.67;;;;;-3.80;76.56;101095.16;6311104;20;3570059;-43
2022/02/13 02:48:33;;;;;;;;;32.50;26.33;;;;;-3.75;77.02;101098.75;6338476;20;2847227;-43
2022/02/13 02:51:03;;;;;;;;;35.00;30.50;;;;;-3.84;77.71;101090.72;6313327;20;2847229;-43
2022/02/13 02:53:36;;;;;;;;;17.25;8.50;;;;;-3.55;77.45;101086.03;6298684;20;1852498;-43
2022/02/13 02:56:05;;;;;;;;;44.33;24.00;;;;;-3.80;76.97;101084.66;6311432;20;3613809;-42
2022/02/13 02:58:34;;;;;;;;;55.00;40.67;;;;;-3.94;78.03;101083.53;6279238;20;3609704;-43
2022/02/13 03:01:04;;;;;;;;;45.67;33.00;;;;;-3.69;76.76;101074.38;6281107;20;3620036;-43
2022/02/13 03:03:33;;;;;;;;;45.00;35.00;;;;;-3.68;77.07;101072.66;6277797;20;2870100;-42
2022/02/13 03:06:03;;;;;;;;;36.33;29.00;;;;;-3.85;77.90;101073.19;6282308;20;3586707;-42
2022/02/13 03:08:31;;;;;;;;;38.00;26.00;;;;;-3.84;77.38;101069.72;6312860;20;2856513;-42
2022/02/13 03:11:01;;;;;;;;;45.67;33.00;;;;;-3.53;76.49;101078.16;6281621;20;3625205;-44
2022/02/13 03:13:30;;;;;;;;;45.00;35.00;;;;;-3.62;76.45;101073.63;6279388;20;3611704;-42
2022/02/13 03:16:01;;;;;;;;;44.00;34.33;;;;;-3.94;77.36;101069.53;6278968;20;3610661;-43
2022/02/13 03:18:30;;;;;;;;;29.00;24.00;;;;;-4.10;78.61;101063.09;6281742;20;2827413;-42
2022/02/13 03:20:59;;;;;;;;;51.00;38.00;;;;;-4.16;78.96;101057.72;6280433;20;2871128;-42
2022/02/13 03:23:28;;;;;;;;;61.00;39.00;;;;;-3.72;77.02;101052.44;6277430;20;2502835;-43
2022/02/13 03:25:56;;;;;;;;;33.00;25.67;;;;;-4.05;78.28;101061.44;6280903;20;3588806;-43
2022/02/13 03:28:25;;;;;;;;;49.67;37.67;;;;;-4.01;78.04;101053.66;6279807;20;3608621;-43
2022/02/13 03:30:53;;;;;;;;;59.50;41.00;;;;;-3.87;78.09;101047.78;6279690;20;2884822;-43
2022/02/13 03:33:21;;;;;;;;;39.50;32.00;;;;;-4.12;77.87;101054.31;6274968;20;2502811;-45
2022/02/13 03:35:49;;;;;;;;;32.00;15.00;;;;;-3.76;77.69;101051.50;6281375;20;2833633;-42
2022/02/13 03:38:18;;;;;;;;;47.33;30.00;;;;;-3.58;76.54;101043.06;6282473;20;3628443;-42
2022/02/13 03:40:47;;;;;;;;;46.33;36.33;;;;;-4.16;77.21;101042.88;6278371;20;3603384;-43
2022/02/13 03:43:16;;;;;;;;;29.33;24.33;;;;;-4.14;76.70;101040.28;6278409;20;3571611;-43
2022/02/13 03:45:45;;;;;;;;;33.33;24.67;;;;;-4.58;77.53;101037.59;6311632;20;3582564;-43
2022/02/13 03:48:13;;;;;;;;;31.33;26.67;;;;;-4.53;77.10;101046.44;6312225;20;3568035;-42
2022/02/13 03:50:44;;;;;;;;;37.00;28.17;;;;;-4.60;76.94;101039.31;6305437;20;2860809;-43
2022/02/13 03:53:13;;;;;;;;;30.00;24.67;;;;;-4.43;76.55;101040.56;6317447;20;3572135;-42
2022/02/13 03:55:41;;;;;;;;;27.33;23.33;;;;;-4.05;75.86;101040.47;6315891;20;3581469;-42
2022/02/13 03:58:12;;;;;;;;;25.00;21.00;;;;;-4.10;75.51;101037.75;6317294;20;3547141;-43
2022/02/13 04:00:39;;;;;;;;;23.50;17.00;;;;;-4.02;74.93;101040.53;6315329;20;2826314;-42
2022/02/13 04:03:08;;;;;;;;;26.67;21.00;;;;;-4.42;75.98;101035.34;6286515;20;3564788;-42
2022/02/13 04:05:37;;;;;;;;;29.67;20.33;;;;;-4.24;76.98;101034.84;6314836;20;3582514;-43
2022/02/13 04:08:05;;;;;;;;;19.00;15.50;;;;;-4.11;76.34;101035.09;6316980;20;2827424;-42
2022/02/13 04:10:35;;;;;;;;;22.80;18.80;;;;;-4.36;76.75;101033.72;6306294;20;2823340;-43
2022/02/13 04:13:04;;;;;;;;;22.00;18.00;;;;;-4.45;77.28;101026.53;6286979;20;3561805;-42
2022/02/13 04:15:34;;;;;;;;;18.33;17.00;;;;;-4.39;77.42;101029.28;6351021;20;1827484;-42
2022/02/13 04:18:15;;;;;;;;;31.67;25.67;;;;;-4.28;76.91;101026.88;6285679;20;3581591;-44
2022/02/13 04:20:45;;;;;;;;;34.00;21.50;;;;;-4.15;76.15;101022.78;6337201;20;2857622;-42
2022/02/13 04:23:13;;;;;;;;;44.00;30.50;;;;;-4.37;77.32;101024.97;6314119;20;2502408;-43
2022/02/13 04:25:42;;;;;;;;;25.67;22.00;;;;;-4.32;76.86;101015.44;6283622;20;3562993;-43
2022/02/13 04:28:10;;;;;;;;;30.00;29.00;;;;;-4.08;76.17;101019.41;6317980;20;2841943;-43
2022/02/13 04:30:38;;;;;;;;;29.67;27.00;;;;;-3.71;75.34;101012.22;6283880;20;3579383;-42
2022/02/13 04:33:07;;;;;;;;;33.50;23.00;;;;;-3.98;75.76;101010.84;6315847;20;2850295;-42
2022/02/13 04:35:36;;;;;;;;;41.33;29.33;;;;;-4.18;76.41;101001.75;6282271;20;3614832;-43
2022/02/13 04:38:05;;;;;;;;;43.33;36.33;;;;;-4.02;76.06;101002.06;6284766;20;3593084;-42
2022/02/13 04:40:32;;;;;;;;;37.00;30.50;;;;;-4.09;75.99;100994.03;6278996;20;2858677;-43
2022/02/13 04:43:01;;;;;;;;;48.00;39.50;;;;;-4.18;75.90;100991.25;6283741;20;2859823;-43
2022/02/13 04:45:30;;;;;;;;;53.00;36.50;;;;;-4.17;76.16;100995.63;6280220;20;2872204;-42
2022/02/13 04:47:58;;;;;;;;;44.50;32.50;;;;;-4.20;76.33;100988.59;6285445;20;2871177;-42
2022/02/13 04:50:28;;;;;;;;;32.33;25.00;;;;;-4.25;76.03;101004.22;6283835;20;3584605;-43
2022/02/13 04:52:56;;;;;;;;;45.33;29.67;;;;;-4.50;76.89;100994.09;6283768;20;3608622;-43
2022/02/13 04:55:25;;;;;;;;;49.33;25.00;;;;;-4.34;77.14;100996.19;6281626;20;3625250;-43
2022/02/13 04:57:54;;;;;;;;;40.00;28.00;;;;;-4.31;75.35;100995.38;6283539;20;3606711;-43
2022/02/13 05:00:22;;;;;;;;;48.50;40.50;;;;;-4.46;76.98;100990.69;6312110;20;2870061;-44
2022/02/13 05:02:51;;;;;;;;;47.40;32.40;;;;;-4.57;77.96;100992.22;6282965;20;3636668;-42
2022/02/13 05:05:21;;;;;;;;;43.67;30.67;;;;;-4.36;77.34;100991.78;6283060;20;3615860;-42
2022/02/13 05:07:50;;;;;;;;;53.00;43.33;;;;;-4.43;76.35;100996.00;6285146;20;3624198;-43
2022/02/13 05:10:18;;;;;;;;;55.00;44.00;;;;;-4.44;77.43;100989.88;6283098;20;2879402;-43
2022/02/13 05:12:51;;;;;;;;;52.00;39.00;;;;;-5.06;77.91;100986.78;6284971;20;2871201;-43
2022/02/13 05:15:21;;;;;;;;;51.50;43.75;;;;;-4.33;77.45;100990.09;6279225;20;3571066;-43
2022/02/13 05:17:50;;;;;;;;;58.40;43.60;;;;;-4.39;76.28;100991.72;6312660;20;3636743;-42
2022/02/13 05:20:19;;;;;;;;;70.00;49.00;;;;;-4.52;76.14;100993.19;6281188;20;2873213;-42
2022/02/13 05:22:48;;;;;;;;;54.50;37.00;;;;;-4.83;76.51;100994.28;6284204;20;2880552;-42
2022/02/13 05:25:16;;;;;;;;;42.00;35.33;;;;;-4.93;76.77;100994.06;6281590;20;3608760;-43
2022/02/13 05:27:45;;;;;;;;;64.67;41.00;;;;;-4.58;75.42;100990.44;6280853;20;3630543;-42
2022/02/13 05:30:14;;;;;;;;;70.00;45.00;;;;;-4.87;76.37;100990.69;6314847;20;2872154;-43
2022/02/13 05:32:44;;;;;;;;;75.25;54.25;;;;;-4.83;76.98;100984.69;6283441;20;3632679;-42
2022/02/13 05:35:13;;;;;;;;;69.00;48.67;;;;;-4.78;76.54;100988.28;6312291;20;2878400;-43
2022/02/13 05:37:42;;;;;;;;;91.00;57.67;;;;;-4.92;76.72;100994.97;6315033;20;3645117;-43
2022/02/13 05:40:11;;;;;;;;;101.67;72.33;;;;;-5.08;77.78;100994.63;6279213;20;2924366;-43
2022/02/13 05:42:41;;;;;;;;;85.80;60.40;;;;;-4.97;77.87;100988.75;6308109;20;3657526;-44
2022/02/13 05:45:10;;;;;;;;;36.50;30.50;;;;;-4.27;76.12;100994.56;6283890;20;2864844;-44
2022/02/13 05:47:38;;;;;;;;;56.00;45.00;;;;;-4.68;76.82;100995.50;6278344;20;2502436;-44
2022/02/13 05:50:06;;;;;;;;;48.00;42.00;;;;;-4.20;75.59;100986.84;6280557;20;2886778;-42
2022/02/13 05:52:34;;;;;;;;;54.50;42.50;;;;;-4.56;76.52;100999.22;6281287;20;2874310;-43
2022/02/13 05:55:02;;;;;;;;;42.00;31.00;;;;;-4.10;75.14;100997.53;6280409;20;2866946;-43
2022/02/13 05:57:30;;;;;;;;;42.00;33.50;;;;;-3.84;73.64;100988.41;6281339;20;2857541;-43
2022/02/13 05:59:58;;;;;;;;;52.00;42.50;;;;;-4.50;75.51;100994.09;6279366;20;2875264;-43
2022/02/13 06:02:27;;;;;;;;;55.50;45.00;;;;;-4.67;76.47;101002.50;6283170;20;2877580;-43
2022/02/13 06:04:56;;;;;;;;;68.00;49.00;;;;;-4.43;76.49;101001.25;6281355;20;2856521;-43
2022/02/13 06:07:25;;;;;;;;;70.00;49.00;;;;;-4.56;77.50;100991.34;6282774;20;2859686;-43
2022/02/13 06:09:53;;;;;;;;;68.00;49.00;;;;;-4.40;77.06;100996.06;6280412;20;2506505;-47
2022/02/13 06:12:22;;;;;;;;;75.67;54.00;;;;;-4.19;77.67;100995.59;6279544;20;2892962;-47
2022/02/13 06:14:51;;;;;;;;;74.00;54.50;;;;;-3.76;74.29;100997.28;6312324;20;2872132;-44
2022/02/13 06:17:20;;;;;;;;;60.50;45.00;;;;;-4.14;76.29;100983.47;6280169;20;2885742;-44
2022/02/13 06:19:48;;;;;;;;;52.00;44.00;;;;;-4.16;76.74;100997.41;6279241;20;2504435;-45
2022/02/13 06:22:16;;;;;;;;;72.50;48.00;;;;;-3.85;75.48;101002.34;6280594;20;2855483;-43
2022/02/13 06:24:44;;;;;;;;;64.50;50.00;;;;;-3.48;74.70;100992.50;6280348;20;2859715;-44
2022/02/13 06:27:11;;;;;;;;;68.00;50.00;;;;;-3.43;74.14;100995.19;6278877;20;2510762;-43
2022/02/13 06:29:40;;;;;;;;;74.00;52.00;;;;;-3.76;75.65;101001.66;6283461;20;2874335;-45
2022/02/13 06:32:10;;;;;;;;;104.33;74.33;;;;;-3.25;74.34;101005.13;6281960;20;3678442;-47
2022/02/13 06:34:40;;;;;;;;;105.00;74.33;;;;;-3.39;74.01;101003.16;6312739;20;3676820;-44
2022/02/13 06:37:09;;;;;;;;;100.67;70.00;;;;;-3.24;74.52;101007.75;6313701;20;3672113;-44
2022/02/13 06:39:39;;;;;;;;;138.67;101.67;;;;;-3.37;74.17;101001.44;6311089;20;3709605;-44
2022/02/13 06:42:10;;;;;;;;;124.00;88.00;;;;;-3.32;74.87;101004.13;6281932;20;3563918;-45
2022/02/13 06:44:39;;;;;;;;;105.33;72.67;;;;;-2.94;73.73;101006.47;6310677;20;3665874;-44
2022/02/13 06:47:08;;;;;;;;;198.67;138.00;;;;;-2.61;72.25;100999.91;6281886;20;3707577;-44
2022/02/13 06:49:38;;;;;;;;;133.00;88.50;;;;;-1.62;70.00;100998.41;6276880;20;4474280;-44
2022/02/13 06:52:08;;;;;;;;;111.67;86.00;;;;;-1.15;68.05;101000.53;6312159;20;3696070;-45
2022/02/13 06:54:37;;;;;;;;;91.00;65.67;;;;;-1.20;66.93;100999.63;6280358;20;3641918;-43
2022/02/13 06:57:07;;;;;;;;;80.67;61.00;;;;;-0.31;64.21;100996.63;6311750;20;3646118;-44
2022/02/13 06:59:36;;;;;;;;;72.00;52.50;;;;;0.10;62.26;100999.38;6314079;20;2874454;-46
2022/02/13 07:02:09;;;;;;;;;25.50;12.50;;;;;-0.15;62.01;101005.47;6298864;20;2838858;-45
2022/02/13 07:04:38;;;;;;;;;55.00;45.50;;;;;0.50;60.76;101003.84;6309798;20;2854410;-47
2022/02/13 07:07:11;;;;;;;;;42.00;39.00;;;;;1.05;59.02;101007.38;6282005;20;2850370;-45
2022/02/13 07:09:40;;;;;;;;;47.50;37.00;;;;;1.13;58.17;101002.03;6281454;20;2875245;-48
2022/02/13 07:12:12;;;;;;;;;62.50;48.00;;;;;1.48;57.93;101006.38;6277847;20;2508602;-43
2022/02/13 07:14:41;;;;;;;;;54.00;44.00;;;;;1.72;56.54;101001.00;6275781;20;2489839;-45
2022/02/13 07:17:10;;;;;;;;;46.67;38.33;;;;;1.13;57.55;101003.81;6281832;20;2879414;-44
2022/02/13 07:19:40;;;;;;;;;90.00;63.67;;;;;2.41;54.25;100999.72;6313303;20;3654871;-44
2022/02/13 07:22:09;;;;;;;;;42.00;38.00;;;;;2.52;54.13;100994.34;6312093;20;2850770;-44
2022/02/13 07:24:37;;;;;;;;;26.50;25.50;;;;;2.61;54.19;100999.59;6278949;20;2500272;-44
2022/02/13 07:27:08;;;;;;;;;50.00;38.00;;;;;2.75;53.70;100999.47;6286590;20;2879584;-45
2022/02/13 07:29:37;;;;;;;;;53.00;42.00;;;;;2.56;53.27;101006.69;6286691;20;2860688;-44
2022/02/13 07:32:06;;;;;;;;;26.00;18.50;;;;;2.39;53.57;101010.31;6285423;20;2821106;-44
2022/02/13 07:34:34;;;;;;;;;20.00;19.00;;;;;1.57;56.11;101009.00;6286646;20;2821079;-44
2022/02/13 07:37:04;;;;;;;;;57.00;47.50;;;;;1.85;57.44;101007.13;6282277;20;2859669;-44
2022/02/13 07:39:35;;;;;;;;;60.50;46.50;;;;;2.05;57.47;101001.69;6285842;20;2872158;-44
2022/02/13 07:42:05;;;;;;;;;25.33;21.67;;;;;1.40;59.17;101005.53;6285619;20;3569064;-45
2022/02/13 07:44:34;;;;;;;;;29.67;19.67;;;;;0.98;62.85;100992.38;6315763;20;3583673;-44
2022/02/13 07:47:02;;;;;;;;;27.00;22.00;;;;;0.74;62.17;100989.75;6317963;20;2722141;-43
2022/02/13 07:49:30;;;;;;;;;25.67;18.67;;;;;0.58;62.22;100991.50;6284997;20;3567931;-43
2022/02/13 07:51:59;;;;;;;;;24.33;22.67;;;;;0.40;62.26;100988.00;6317266;20;3556508;-46
2022/02/13 07:54:29;;;;;;;;;25.00;19.00;;;;;0.25;62.23;100981.81;6317308;20;3552324;-43
2022/02/13 07:56:58;;;;;;;;;36.00;27.33;;;;;0.11;63.68;100982.66;6315500;20;3604573;-44
2022/02/13 07:59:27;;;;;;;;;23.00;23.00;;;;;0.26;62.55;100986.19;6285139;20;3563818;-43
2022/02/13 08:01:55;;;;;;;;;28.00;26.67;;;;;0.48;62.46;100989.78;6320199;20;3589864;-44
2022/02/13 08:04:23;;;;;;;;;27.50;22.50;;;;;0.25;62.19;100981.81;6284997;20;2831501;-44
2022/02/13 08:06:52;;;;;;;;;25.33;20.67;;;;;0.38;62.21;100984.47;6287407;20;3555449;-43
2022/02/13 08:09:20;;;;;;;;;34.00;29.00;;;;;0.79;62.90;100985.34;6286326;20;2500694;-43
2022/02/13 08:11:47;;;;;;;;;35.50;30.50;;;;;0.49;62.90;100984.47;6286925;20;2500350;-43
2022/02/13 08:14:15;;;;;;;;;32.00;26.50;;;;;0.81;62.66;100989.75;6285813;20;2500336;-42
2022/02/13 08:16:43;;;;;;;;;43.00;33.00;;;;;0.72;62.04;100986.25;6284034;20;2500256;-43
2022/02/13 08:19:12;;;;;;;;;42.50;33.00;;;;;0.31;62.92;100976.53;6287989;20;2861719;-48
2022/02/13 08:21:40;;;;;;;;;33.00;29.00;;;;;0.46;63.06;100984.47;6289443;20;2737757;-45
2022/02/13 08:24:07;;;;;;;;;32.50;27.00;;;;;0.40;62.55;100976.56;6315105;20;2500326;-43
2022/02/13 08:26:35;;;;;;;;;40.00;35.00;;;;;0.86;62.32;100980.03;6286924;20;2508616;-45
2022/02/13 08:29:06;;;;;;;;;44.50;34.00;;;;;0.83;62.02;100981.81;6287068;20;2867045;-47
2022/02/13 08:31:34;;;;;;;;;30.33;27.00;;;;;1.18;60.79;100978.22;6289597;20;3580548;-45
2022/02/13 08:34:03;;;;;;;;;41.50;34.00;;;;;1.21;61.37;100975.56;6285031;20;2866932;-43
2022/02/13 08:36:36;;;;;;;;;47.50;42.00;;;;;1.84;60.49;100985.94;6286138;20;2877363;-43
2022/02/13 08:39:05;;;;;;;;;36.00;26.50;;;;;1.47;60.71;100986.97;6286496;20;2858595;-44
2022/02/13 08:41:33;;;;;;;;;34.50;26.50;;;;;2.05;60.71;100979.63;6290028;20;2855633;-45
2022/02/13 08:44:06;;;;;;;;;46.00;39.00;;;;;2.50;59.20;100983.78;6285607;20;2876320;-44
2022/02/13 08:46:36;;;;;;;;;35.00;29.00;;;;;1.99;60.48;100972.63;6315729;20;2500272;-43
2022/02/13 08:49:05;;;;;;;;;54.33;40.00;;;;;2.26;58.14;100971.53;6288050;20;2898273;-47
2022/02/13 08:51:34;;;;;;;;;39.50;34.00;;;;;2.34;58.51;100969.75;6318220;20;2866976;-46
2022/02/13 08:54:03;;;;;;;;;39.00;34.00;;;;;2.01;59.92;100965.53;6286003;20;2860654;-43
2022/02/13 08:56:31;;;;;;;;;36.50;32.50;;;;;1.74;59.20;100974.53;6286756;20;2846098;-43
2022/02/13 08:59:01;;;;;;;;;43.50;37.00;;;;;1.77;59.57;100963.91;6287134;20;2861797;-44
2022/02/13 09:01:30;;;;;;;;;44.50;42.00;;;;;2.47;58.36;100967.00;6285414;20;2848297;-46
2022/02/13 09:03:59;;;;;;;;;46.00;34.50;;;;;2.64;58.28;100973.03;6281061;20;2871107;-45
2022/02/13 09:06:28;;;;;;;;;31.00;31.00;;;;;2.32;58.35;100968.88;6285939;20;2846146;-44
2022/02/13 09:08:57;;;;;;;;;47.00;37.67;;;;;2.21;58.67;100968.03;6287413;20;3632570;-43
2022/02/13 09:11:27;;;;;;;;;62.00;45.67;;;;;2.11;58.92;100967.25;6319647;20;3630475;-43
2022/02/13 09:13:57;;;;;;;;;78.00;60.00;;;;;2.41;59.33;100966.16;6318612;20;2894144;-44
2022/02/13 09:16:26;;;;;;;;;40.00;36.00;;;;;2.98;57.66;100972.75;6318437;20;2858612;-43
2022/02/13 09:18:54;;;;;;;;;51.50;44.50;;;;;3.01;57.70;100967.41;6287162;20;2489963;-43
2022/02/13 09:21:22;;;;;;;;;58.50;45.00;;;;;2.61;58.85;100967.78;6282758;20;2508612;-43
2022/02/13 09:23:51;;;;;;;;;54.50;44.00;;;;;3.05;58.28;100961.16;6285573;20;2873199;-43
2022/02/13 09:26:20;;;;;;;;;54.00;42.50;;;;;3.53;56.91;100961.53;6288482;20;2882561;-44
2022/02/13 09:28:49;;;;;;;;;47.33;41.00;;;;;2.76;58.27;100962.31;6286673;20;2873279;-43
2022/02/13 09:31:19;;;;;;;;;54.50;45.00;;;;;2.98;58.23;100947.09;6317257;20;2656575;-45
2022/02/13 09:33:48;;;;;;;;;51.33;42.67;;;;;3.65;56.82;100953.38;6318137;20;2865903;-43
2022/02/13 09:36:20;;;;;;;;;68.00;49.00;;;;;3.26;57.99;100952.09;6315648;20;2875428;-43
2022/02/13 09:38:49;;;;;;;;;46.00;41.50;;;;;3.04;57.72;100951.44;6318245;20;2848267;-44
2022/02/13 09:41:21;;;;;;;;;30.67;24.33;;;;;3.45;57.44;100944.78;6286535;20;3585722;-44
2022/02/13 09:43:54;;;;;;;;;49.00;38.67;;;;;3.78;56.27;100943.47;6286406;20;3634585;-45
2022/02/13 09:46:24;;;;;;;;;684.25;421.00;;;;;4.21;55.27;100942.84;6271889;20;4553376;-46
2022/02/13 09:48:52;;;;;;;;;57.50;42.50;;;;;4.12;56.12;100933.25;6286875;20;2849207;-43
2022/02/13 09:51:23;;;;;;;;;53.67;40.33;;;;;4.17;55.11;100939.38;6282142;20;2861784;-47
2022/02/13 09:53:52;;;;;;;;;41.00;33.50;;;;;3.94;56.68;100931.75;6315307;20;2849447;-45
2022/02/13 09:56:22;;;;;;;;;43.00;34.67;;;;;4.39;55.43;100936.38;6287243;20;2863868;-44
2022/02/13 09:58:51;;;;;;;;;56.67;44.00;;;;;4.28;55.81;100933.03;6317602;20;2870091;-44
2022/02/13 10:01:35;;;;;;;;;46.00;40.50;;;;;4.53;55.16;100934.41;6318720;20;2861754;-44
2022/02/13 10:04:06;;;;;;;;;41.50;38.50;;;;;5.09;54.77;100928.09;6285366;20;2852512;-45
2022/02/13 10:06:38;;;;;;;;;45.00;37.00;;;;;4.86;54.48;100918.72;6286061;20;2854415;-44
2022/02/13 10:09:10;;;;;;;;;36.50;30.50;;;;;4.66;55.24;100912.88;6286623;20;2856567;-45
2022/02/13 10:11:42;;;;;;;;;44.50;38.00;;;;;4.12;56.51;100911.13;6286447;20;2850306;-44
2022/02/13 10:14:15;;;;;;;;;48.67;41.33;;;;;4.36;56.47;100912.50;6284930;20;2855494;-43
2022/02/13 10:16:49;;;;;;;;;49.50;42.00;;;;;4.82;55.67;100911.72;6314353;20;2864873;-45
2022/02/13 10:19:23;;;;;;;;;43.00;38.67;;;;;5.59;54.98;100918.19;6283804;20;2861791;-47
2022/02/13 10:22:00;;;;;;;;;49.50;40.00;;;;;5.75;54.27;100908.09;6319613;20;2866916;-48
2022/02/13 10:24:33;;;;;;;;;41.00;38.33;;;;;5.66;54.06;100895.81;6285406;20;3621117;-46
2022/02/13 10:27:16;;;;;;;;;64.67;48.00;;;;;5.87;54.10;100890.03;6314933;20;3641891;-46
2022/02/13 10:29:55;;;;;;;;;46.00;38.00;;;;;6.35;53.32;100889.81;6317029;20;3623174;-45
2022/02/13 10:32:29;;;;;;;;;46.67;36.67;;;;;6.26;52.93;100884.69;6316814;20;3627324;-48
2022/02/13 10:35:15;;;;;;;;;38.00;31.00;;;;;6.09;53.86;100882.44;6313508;20;2856527;-45
2022/02/13 10:37:58;;;;;;;;;41.50;36.00;;;;;6.29;53.41;100871.31;6313093;20;2849236;-49
2022/02/13 10:40:31;;;;;;;;;35.00;34.50;;;;;5.83;54.46;100868.81;6281783;20;2861276;-46
2022/02/13 10:43:11;;;;;;;;;39.00;32.00;;;;;5.85;55.27;100867.88;6285081;20;2860460;-46
2022/02/13 10:45:41;;;;;;;;;45.67;33.00;;;;;6.38;53.24;100854.19;6282365;20;2878475;-47
2022/02/13 10:48:12;;;;;;;;;30.00;25.33;;;;;6.38;53.85;100852.38;6316716;20;3568968;-46
2022/02/13 10:50:41;;;;;;;;;30.00;26.00;;;;;6.30;55.45;100843.69;6285512;20;2845238;-47
2022/02/13 10:53:11;;;;;;;;;40.00;35.00;;;;;6.46;54.18;100843.31;6284030;20;3617916;-45
2022/02/13 10:55:41;;;;;;;;;39.67;34.00;;;;;6.51;55.20;100830.72;6311689;20;2853836;-54
2022/02/13 10:58:10;;;;;;;;;39.33;34.67;;;;;6.54;54.75;100830.66;6313833;20;3606870;-42
2022/02/13 11:00:42;;;;;;;;;46.00;36.67;;;;;7.06;54.12;100822.97;6312859;20;2872152;-45
2022/02/13 11:03:20;;;;;;;;;40.67;31.00;;;;;7.10;54.17;100825.50;6312619;20;3623132;-44
2022/02/13 11:05:51;;;;;;;;;42.67;36.00;;;;;6.55;54.99;100816.38;6317477;20;3588855;-44
2022/02/13 11:08:24;;;;;;;;;41.00;36.33;;;;;7.08;53.60;100808.66;6280429;20;3609617;-53